Terminal Aerodrome Forecast
Issued by NWS Wilmington, OH

Current Version | Previous Version | Graphics & Text | Print | Product List | Glossary On
Versions: 1 2 3 4 5 6 7 8 9 10 11 12 13 14 15 16 17 18 19 20 21 22 23 24 25 26 27 28 29
000
FTUS41 KILN 252320
TAFCVG
TAF
KCVG 252320Z 2600/2706 VRB03KT P6SM SCT150 BKN250
      TEMPO 2609/2613 5SM BR
     FM261400 25005KT P6SM SCT035 SCT200
     FM262100 32005KT P6SM VCSH BKN040
     FM270000 02004KT P6SM VCSH BKN040=

USA.gov is the U.S. government's official web portal to all federal, state and local government web resources and services.